sensor_id;sensor_type;location;lat;lon;timestamp;P1;durP1;ratioP1;P2;durP2;ratioP2
71202;SDS011;58929;47.490;19.090;2023-04-25T00:00:41;4.07;;;1.55;;
71202;SDS011;58929;47.490;19.090;2023-04-25T00:03:09;1.60;;;1.50;;
71202;SDS011;58929;47.490;19.090;2023-04-25T00:05:37;2.95;;;1.70;;
71202;SDS011;58929;47.490;19.090;2023-04-25T00:08:07;2.75;;;1.42;;
71202;SDS011;58929;47.490;19.090;2023-04-25T00:10:35;3.03;;;1.38;;
71202;SDS011;58929;47.490;19.090;2023-04-25T00:13:03;2.67;;;1.48;;
71202;SDS011;58929;47.490;19.090;2023-04-25T00:15:31;1.77;;;1.40;;
71202;SDS011;58929;47.490;19.090;2023-04-25T00:17:59;3.95;;;1.70;;
71202;SDS011;58929;47.490;19.090;2023-04-25T00:20:26;4.80;;;1.40;;
71202;SDS011;58929;47.490;19.090;2023-04-25T00:22:55;2.63;;;1.67;;
71202;SDS011;58929;47.490;19.090;2023-04-25T00:25:24;2.65;;;1.58;;
71202;SDS011;58929;47.490;19.090;2023-04-25T00:27:52;2.63;;;1.60;;
71202;SDS011;58929;47.490;19.090;2023-04-25T00:30:21;2.78;;;1.98;;
71202;SDS011;58929;47.490;19.090;2023-04-25T00:32:48;3.10;;;1.98;;
71202;SDS011;58929;47.490;19.090;2023-04-25T00:35:17;3.13;;;1.90;;
71202;SDS011;58929;47.490;19.090;2023-04-25T00:37:45;8.15;;;5.30;;
71202;SDS011;58929;47.490;19.090;2023-04-25T00:40:13;6.43;;;2.00;;
71202;SDS011;58929;47.490;19.090;2023-04-25T00:42:42;3.08;;;2.10;;
71202;SDS011;58929;47.490;19.090;2023-04-25T00:45:10;2.40;;;1.77;;
71202;SDS011;58929;47.490;19.090;2023-04-25T00:47:40;4.00;;;2.10;;
71202;SDS011;58929;47.490;19.090;2023-04-25T00:50:09;4.57;;;2.08;;
71202;SDS011;58929;47.490;19.090;2023-04-25T00:52:38;3.38;;;1.92;;
71202;SDS011;58929;47.490;19.090;2023-04-25T00:55:08;6.22;;;2.00;;
71202;SDS011;58929;47.490;19.090;2023-04-25T00:57:36;4.00;;;2.50;;
71202;SDS011;58929;47.490;19.090;2023-04-25T01:00:08;2.88;;;2.20;;
71202;SDS011;58929;47.490;19.090;2023-04-25T01:02:37;2.80;;;2.00;;
71202;SDS011;58929;47.490;19.090;2023-04-25T01:05:06;2.47;;;2.28;;
71202;SDS011;58929;47.490;19.090;2023-04-25T01:07:34;3.22;;;2.50;;
71202;SDS011;58929;47.490;19.090;2023-04-25T01:10:02;4.30;;;2.05;;
71202;SDS011;58929;47.490;19.090;2023-04-25T01:12:31;2.47;;;1.98;;
71202;SDS011;58929;47.490;19.090;2023-04-25T01:14:59;2.65;;;2.35;;
71202;SDS011;58929;47.490;19.090;2023-04-25T01:17:28;2.42;;;2.17;;
71202;SDS011;58929;47.490;19.090;2023-04-25T01:19:58;3.25;;;2.45;;
71202;SDS011;58929;47.490;19.090;2023-04-25T01:22:27;4.57;;;2.40;;
71202;SDS011;58929;47.490;19.090;2023-04-25T01:24:55;3.97;;;2.60;;
71202;SDS011;58929;47.490;19.090;2023-04-25T01:27:24;3.90;;;2.28;;
71202;SDS011;58929;47.490;19.090;2023-04-25T01:29:53;3.15;;;2.22;;
71202;SDS011;58929;47.490;19.090;2023-04-25T01:32:22;4.15;;;2.80;;
71202;SDS011;58929;47.490;19.090;2023-04-25T01:34:51;2.92;;;2.65;;
71202;SDS011;58929;47.490;19.090;2023-04-25T01:37:19;6.60;;;2.97;;
71202;SDS011;58929;47.490;19.090;2023-04-25T01:39:48;3.13;;;2.65;;
71202;SDS011;58929;47.490;19.090;2023-04-25T01:42:16;6.88;;;2.95;;
71202;SDS011;58929;47.490;19.090;2023-04-25T01:44:44;4.57;;;2.60;;
71202;SDS011;58929;47.490;19.090;2023-04-25T01:47:13;4.90;;;3.00;;
71202;SDS011;58929;47.490;19.090;2023-04-25T01:49:41;3.85;;;2.78;;
71202;SDS011;58929;47.490;19.090;2023-04-25T01:52:09;7.40;;;2.90;;
71202;SDS011;58929;47.490;19.090;2023-04-25T01:54:38;6.07;;;2.80;;
71202;SDS011;58929;47.490;19.090;2023-04-25T01:57:13;3.55;;;2.80;;
71202;SDS011;58929;47.490;19.090;2023-04-25T01:59:42;3.35;;;2.63;;
71202;SDS011;58929;47.490;19.090;2023-04-25T02:02:37;3.83;;;2.70;;
71202;SDS011;58929;47.490;19.090;2023-04-25T02:07:43;3.80;;;2.83;;
71202;SDS011;58929;47.490;19.090;2023-04-25T02:10:11;3.15;;;2.70;;
71202;SDS011;58929;47.490;19.090;2023-04-25T02:12:52;2.67;;;2.47;;
71202;SDS011;58929;47.490;19.090;2023-04-25T02:15:33;4.18;;;2.85;;
71202;SDS011;58929;47.490;19.090;2023-04-25T02:18:13;6.50;;;2.88;;
71202;SDS011;58929;47.490;19.090;2023-04-25T02:20:42;3.83;;;2.65;;
71202;SDS011;58929;47.490;19.090;2023-04-25T02:23:10;3.83;;;3.08;;
71202;SDS011;58929;47.490;19.090;2023-04-25T02:25:38;7.07;;;3.85;;
71202;SDS011;58929;47.490;19.090;2023-04-25T02:28:08;8.68;;;3.10;;
71202;SDS011;58929;47.490;19.090;2023-04-25T02:30:36;4.30;;;2.90;;
71202;SDS011;58929;47.490;19.090;2023-04-25T02:33:04;9.20;;;4.40;;
71202;SDS011;58929;47.490;19.090;2023-04-25T02:35:35;4.00;;;2.78;;
71202;SDS011;58929;47.490;19.090;2023-04-25T02:38:03;4.57;;;3.72;;
71202;SDS011;58929;47.490;19.090;2023-04-25T02:40:32;4.15;;;2.70;;
71202;SDS011;58929;47.490;19.090;2023-04-25T02:43:00;4.72;;;2.50;;
71202;SDS011;58929;47.490;19.090;2023-04-25T02:45:29;4.15;;;2.55;;
71202;SDS011;58929;47.490;19.090;2023-04-25T02:47:57;3.25;;;2.40;;
71202;SDS011;58929;47.490;19.090;2023-04-25T02:50:25;3.13;;;2.83;;
71202;SDS011;58929;47.490;19.090;2023-04-25T02:52:53;4.35;;;2.38;;
71202;SDS011;58929;47.490;19.090;2023-04-25T02:55:26;3.58;;;2.58;;
71202;SDS011;58929;47.490;19.090;2023-04-25T02:57:55;3.70;;;2.50;;
71202;SDS011;58929;47.490;19.090;2023-04-25T03:00:41;2.88;;;2.30;;
71202;SDS011;58929;47.490;19.090;2023-04-25T03:03:09;2.65;;;2.40;;
71202;SDS011;58929;47.490;19.090;2023-04-25T03:05:37;3.90;;;2.78;;
71202;SDS011;58929;47.490;19.090;2023-04-25T03:08:06;2.60;;;2.40;;
71202;SDS011;58929;47.490;19.090;2023-04-25T03:10:36;6.22;;;2.50;;
71202;SDS011;58929;47.490;19.090;2023-04-25T03:13:07;3.85;;;2.83;;
71202;SDS011;58929;47.490;19.090;2023-04-25T03:15:36;8.68;;;3.15;;
71202;SDS011;58929;47.490;19.090;2023-04-25T03:18:05;5.88;;;3.00;;
71202;SDS011;58929;47.490;19.090;2023-04-25T03:20:33;3.72;;;2.90;;
71202;SDS011;58929;47.490;19.090;2023-04-25T03:23:02;4.93;;;3.20;;
71202;SDS011;58929;47.490;19.090;2023-04-25T03:25:31;3.88;;;2.67;;
71202;SDS011;58929;47.490;19.090;2023-04-25T03:27:59;5.65;;;2.85;;
71202;SDS011;58929;47.490;19.090;2023-04-25T03:30:27;5.13;;;2.75;;
71202;SDS011;58929;47.490;19.090;2023-04-25T03:32:55;6.13;;;3.05;;
71202;SDS011;58929;47.490;19.090;2023-04-25T03:35:24;7.00;;;3.15;;
71202;SDS011;58929;47.490;19.090;2023-04-25T03:37:53;5.97;;;3.13;;
71202;SDS011;58929;47.490;19.090;2023-04-25T03:40:27;4.03;;;2.92;;
71202;SDS011;58929;47.490;19.090;2023-04-25T03:43:07;3.38;;;2.58;;
71202;SDS011;58929;47.490;19.090;2023-04-25T03:45:37;2.92;;;2.63;;
71202;SDS011;58929;47.490;19.090;2023-04-25T03:48:05;3.35;;;2.58;;
71202;SDS011;58929;47.490;19.090;2023-04-25T03:50:34;4.47;;;3.13;;
71202;SDS011;58929;47.490;19.090;2023-04-25T03:53:02;3.33;;;2.80;;
71202;SDS011;58929;47.490;19.090;2023-04-25T03:55:43;5.75;;;2.95;;
71202;SDS011;58929;47.490;19.090;2023-04-25T03:58:12;7.05;;;4.35;;
71202;SDS011;58929;47.490;19.090;2023-04-25T04:00:40;5.30;;;3.40;;
71202;SDS011;58929;47.490;19.090;2023-04-25T04:03:08;3.63;;;2.67;;
71202;SDS011;58929;47.490;19.090;2023-04-25T04:05:39;2.55;;;2.33;;
71202;SDS011;58929;47.490;19.090;2023-04-25T04:08:08;6.68;;;2.60;;
71202;SDS011;58929;47.490;19.090;2023-04-25T04:10:38;2.50;;;2.30;;
71202;SDS011;58929;47.490;19.090;2023-04-25T04:13:06;2.85;;;2.60;;
71202;SDS011;58929;47.490;19.090;2023-04-25T04:15:34;8.15;;;2.92;;
71202;SDS011;58929;47.490;19.090;2023-04-25T04:18:03;6.93;;;2.63;;
71202;SDS011;58929;47.490;19.090;2023-04-25T04:20:31;5.35;;;2.60;;
71202;SDS011;58929;47.490;19.090;2023-04-25T04:23:01;4.45;;;3.00;;
71202;SDS011;58929;47.490;19.090;2023-04-25T04:25:29;3.03;;;2.58;;
71202;SDS011;58929;47.490;19.090;2023-04-25T04:28:17;3.72;;;3.25;;
71202;SDS011;58929;47.490;19.090;2023-04-25T04:30:54;3.30;;;2.85;;
71202;SDS011;58929;47.490;19.090;2023-04-25T04:33:22;3.63;;;2.97;;
71202;SDS011;58929;47.490;19.090;2023-04-25T04:35:56;3.83;;;3.28;;
71202;SDS011;58929;47.490;19.090;2023-04-25T04:38:26;3.67;;;2.97;;
71202;SDS011;58929;47.490;19.090;2023-04-25T04:40:57;6.10;;;2.83;;
71202;SDS011;58929;47.490;19.090;2023-04-25T04:43:48;4.53;;;3.05;;
71202;SDS011;58929;47.490;19.090;2023-04-25T04:46:42;12.88;;;4.50;;
71202;SDS011;58929;47.490;19.090;2023-04-25T04:52:08;13.40;;;3.03;;
71202;SDS011;58929;47.490;19.090;2023-04-25T04:55:03;4.03;;;2.83;;
71202;SDS011;58929;47.490;19.090;2023-04-25T04:57:50;4.38;;;2.90;;
71202;SDS011;58929;47.490;19.090;2023-04-25T05:00:38;10.68;;;3.10;;
71202;SDS011;58929;47.490;19.090;2023-04-25T05:03:27;6.95;;;2.97;;
71202;SDS011;58929;47.490;19.090;2023-04-25T05:06:00;3.50;;;2.63;;
71202;SDS011;58929;47.490;19.090;2023-04-25T05:08:37;4.07;;;3.00;;
71202;SDS011;58929;47.490;19.090;2023-04-25T05:11:16;4.35;;;2.45;;
71202;SDS011;58929;47.490;19.090;2023-04-25T05:13:55;2.95;;;2.53;;
71202;SDS011;58929;47.490;19.090;2023-04-25T05:16:49;5.72;;;2.97;;
71202;SDS011;58929;47.490;19.090;2023-04-25T05:19:29;3.28;;;2.95;;
71202;SDS011;58929;47.490;19.090;2023-04-25T05:22:24;3.17;;;2.53;;
71202;SDS011;58929;47.490;19.090;2023-04-25T05:25:19;4.03;;;2.72;;
71202;SDS011;58929;47.490;19.090;2023-04-25T05:28:03;2.80;;;2.47;;
71202;SDS011;58929;47.490;19.090;2023-04-25T05:30:49;5.28;;;2.67;;
71202;SDS011;58929;47.490;19.090;2023-04-25T05:33:27;5.43;;;2.40;;
71202;SDS011;58929;47.490;19.090;2023-04-25T05:35:55;3.35;;;2.40;;
71202;SDS011;58929;47.490;19.090;2023-04-25T05:38:26;6.15;;;2.67;;
71202;SDS011;58929;47.490;19.090;2023-04-25T05:41:12;3.65;;;2.20;;
71202;SDS011;58929;47.490;19.090;2023-04-25T05:43:55;6.25;;;2.20;;
71202;SDS011;58929;47.490;19.090;2023-04-25T05:46:39;5.28;;;2.30;;
71202;SDS011;58929;47.490;19.090;2023-04-25T05:49:22;4.80;;;2.42;;
71202;SDS011;58929;47.490;19.090;2023-04-25T05:51:52;4.75;;;2.55;;
71202;SDS011;58929;47.490;19.090;2023-04-25T05:54:33;4.55;;;2.97;;
71202;SDS011;58929;47.490;19.090;2023-04-25T05:57:01;6.30;;;3.10;;
71202;SDS011;58929;47.490;19.090;2023-04-25T05:59:32;6.65;;;2.72;;
71202;SDS011;58929;47.490;19.090;2023-04-25T06:02:00;3.50;;;2.42;;
71202;SDS011;58929;47.490;19.090;2023-04-25T06:04:31;5.75;;;3.00;;
71202;SDS011;58929;47.490;19.090;2023-04-25T06:07:00;3.63;;;2.67;;
71202;SDS011;58929;47.490;19.090;2023-04-25T06:09:28;3.55;;;2.78;;
71202;SDS011;58929;47.490;19.090;2023-04-25T06:11:56;4.90;;;2.33;;
71202;SDS011;58929;47.490;19.090;2023-04-25T06:14:24;3.83;;;3.15;;
71202;SDS011;58929;47.490;19.090;2023-04-25T06:16:56;5.78;;;3.20;;
71202;SDS011;58929;47.490;19.090;2023-04-25T06:19:25;4.00;;;2.80;;
71202;SDS011;58929;47.490;19.090;2023-04-25T06:21:54;5.07;;;3.22;;
71202;SDS011;58929;47.490;19.090;2023-04-25T06:24:22;6.63;;;3.60;;
71202;SDS011;58929;47.490;19.090;2023-04-25T06:26:50;5.85;;;3.75;;
71202;SDS011;58929;47.490;19.090;2023-04-25T06:29:17;6.18;;;3.55;;
71202;SDS011;58929;47.490;19.090;2023-04-25T06:31:46;8.68;;;5.70;;
71202;SDS011;58929;47.490;19.090;2023-04-25T06:34:15;6.63;;;3.38;;
71202;SDS011;58929;47.490;19.090;2023-04-25T06:36:44;5.28;;;3.63;;
71202;SDS011;58929;47.490;19.090;2023-04-25T06:39:14;11.27;;;4.05;;
71202;SDS011;58929;47.490;19.090;2023-04-25T06:41:43;5.32;;;3.25;;
71202;SDS011;58929;47.490;19.090;2023-04-25T06:44:33;5.85;;;3.67;;
71202;SDS011;58929;47.490;19.090;2023-04-25T06:47:05;4.85;;;3.78;;
71202;SDS011;58929;47.490;19.090;2023-04-25T06:49:35;6.28;;;4.03;;
71202;SDS011;58929;47.490;19.090;2023-04-25T06:52:04;4.97;;;3.75;;
71202;SDS011;58929;47.490;19.090;2023-04-25T06:54:32;5.78;;;3.92;;
71202;SDS011;58929;47.490;19.090;2023-04-25T06:57:07;4.90;;;3.70;;
71202;SDS011;58929;47.490;19.090;2023-04-25T06:59:37;4.70;;;4.15;;
71202;SDS011;58929;47.490;19.090;2023-04-25T07:02:05;7.63;;;3.85;;
71202;SDS011;58929;47.490;19.090;2023-04-25T07:04:34;3.92;;;3.55;;
71202;SDS011;58929;47.490;19.090;2023-04-25T07:07:03;8.50;;;4.95;;
71202;SDS011;58929;47.490;19.090;2023-04-25T07:09:38;5.72;;;4.18;;
71202;SDS011;58929;47.490;19.090;2023-04-25T07:12:06;7.38;;;4.85;;
71202;SDS011;58929;47.490;19.090;2023-04-25T07:14:34;4.18;;;3.78;;
71202;SDS011;58929;47.490;19.090;2023-04-25T07:17:02;7.50;;;3.85;;
71202;SDS011;58929;47.490;19.090;2023-04-25T07:19:35;10.40;;;7.35;;
71202;SDS011;58929;47.490;19.090;2023-04-25T07:22:05;7.85;;;5.05;;
71202;SDS011;58929;47.490;19.090;2023-04-25T07:24:36;6.88;;;4.70;;
71202;SDS011;58929;47.490;19.090;2023-04-25T07:27:05;11.38;;;4.95;;
71202;SDS011;58929;47.490;19.090;2023-04-25T07:29:59;6.47;;;4.68;;
71202;SDS011;58929;47.490;19.090;2023-04-25T07:32:28;7.38;;;5.38;;
71202;SDS011;58929;47.490;19.090;2023-04-25T07:34:57;9.35;;;5.47;;
71202;SDS011;58929;47.490;19.090;2023-04-25T07:37:26;4.47;;;3.42;;
71202;SDS011;58929;47.490;19.090;2023-04-25T07:40:02;5.50;;;4.03;;
71202;SDS011;58929;47.490;19.090;2023-04-25T07:42:32;4.28;;;3.80;;
71202;SDS011;58929;47.490;19.090;2023-04-25T07:45:00;3.83;;;3.40;;
71202;SDS011;58929;47.490;19.090;2023-04-25T07:47:28;11.98;;;5.35;;
71202;SDS011;58929;47.490;19.090;2023-04-25T07:49:58;6.20;;;4.10;;
71202;SDS011;58929;47.490;19.090;2023-04-25T07:52:27;6.88;;;4.03;;
71202;SDS011;58929;47.490;19.090;2023-04-25T07:55:03;4.20;;;3.60;;
71202;SDS011;58929;47.490;19.090;2023-04-25T07:57:47;4.38;;;3.55;;
71202;SDS011;58929;47.490;19.090;2023-04-25T08:00:15;9.60;;;4.47;;
71202;SDS011;58929;47.490;19.090;2023-04-25T08:02:50;5.57;;;3.38;;
71202;SDS011;58929;47.490;19.090;2023-04-25T08:05:21;5.90;;;4.05;;
71202;SDS011;58929;47.490;19.090;2023-04-25T08:07:58;7.28;;;4.30;;
71202;SDS011;58929;47.490;19.090;2023-04-25T08:10:26;5.95;;;3.58;;
71202;SDS011;58929;47.490;19.090;2023-04-25T08:12:54;4.97;;;3.67;;
71202;SDS011;58929;47.490;19.090;2023-04-25T08:15:22;6.03;;;3.75;;
71202;SDS011;58929;47.490;19.090;2023-04-25T08:17:50;3.38;;;2.75;;
71202;SDS011;58929;47.490;19.090;2023-04-25T08:20:18;6.93;;;3.95;;
71202;SDS011;58929;47.490;19.090;2023-04-25T08:22:50;7.25;;;3.10;;
71202;SDS011;58929;47.490;19.090;2023-04-25T08:25:50;3.88;;;3.40;;
71202;SDS011;58929;47.490;19.090;2023-04-25T08:28:21;5.25;;;4.03;;
71202;SDS011;58929;47.490;19.090;2023-04-25T08:30:50;4.82;;;3.95;;
71202;SDS011;58929;47.490;19.090;2023-04-25T08:33:19;5.18;;;3.05;;
71202;SDS011;58929;47.490;19.090;2023-04-25T08:35:59;5.18;;;3.20;;
71202;SDS011;58929;47.490;19.090;2023-04-25T08:38:29;3.75;;;2.95;;
71202;SDS011;58929;47.490;19.090;2023-04-25T08:40:59;3.53;;;3.08;;
71202;SDS011;58929;47.490;19.090;2023-04-25T08:43:27;5.95;;;2.83;;
71202;SDS011;58929;47.490;19.090;2023-04-25T08:45:58;5.20;;;3.33;;
71202;SDS011;58929;47.490;19.090;2023-04-25T08:48:37;3.15;;;2.70;;
71202;SDS011;58929;47.490;19.090;2023-04-25T08:51:06;10.30;;;3.25;;
71202;SDS011;58929;47.490;19.090;2023-04-25T08:53:39;4.03;;;2.75;;
71202;SDS011;58929;47.490;19.090;2023-04-25T08:56:09;5.32;;;3.47;;
71202;SDS011;58929;47.490;19.090;2023-04-25T08:58:40;5.80;;;3.53;;
71202;SDS011;58929;47.490;19.090;2023-04-25T09:01:08;4.03;;;3.30;;
71202;SDS011;58929;47.490;19.090;2023-04-25T09:03:44;3.72;;;2.50;;
71202;SDS011;58929;47.490;19.090;2023-04-25T09:06:14;4.07;;;2.65;;
71202;SDS011;58929;47.490;19.090;2023-04-25T09:08:44;4.35;;;3.80;;
71202;SDS011;58929;47.490;19.090;2023-04-25T09:11:12;5.38;;;3.35;;
71202;SDS011;58929;47.490;19.090;2023-04-25T09:13:41;3.83;;;3.00;;
71202;SDS011;58929;47.490;19.090;2023-04-25T09:16:23;4.97;;;2.75;;
71202;SDS011;58929;47.490;19.090;2023-04-25T09:19:15;7.85;;;3.05;;
71202;SDS011;58929;47.490;19.090;2023-04-25T09:22:05;6.07;;;3.08;;
71202;SDS011;58929;47.490;19.090;2023-04-25T09:24:36;4.47;;;2.95;;
71202;SDS011;58929;47.490;19.090;2023-04-25T09:27:04;6.15;;;2.85;;
71202;SDS011;58929;47.490;19.090;2023-04-25T09:29:33;5.38;;;2.95;;
71202;SDS011;58929;47.490;19.090;2023-04-25T09:32:12;6.47;;;3.22;;
71202;SDS011;58929;47.490;19.090;2023-04-25T09:34:41;4.05;;;2.58;;
71202;SDS011;58929;47.490;19.090;2023-04-25T09:37:11;4.68;;;3.00;;
71202;SDS011;58929;47.490;19.090;2023-04-25T09:39:59;7.00;;;3.75;;
71202;SDS011;58929;47.490;19.090;2023-04-25T09:42:35;3.15;;;2.55;;
71202;SDS011;58929;47.490;19.090;2023-04-25T09:45:03;6.93;;;2.92;;
71202;SDS011;58929;47.490;19.090;2023-04-25T09:47:36;4.57;;;3.08;;
71202;SDS011;58929;47.490;19.090;2023-04-25T09:50:13;4.45;;;3.00;;
71202;SDS011;58929;47.490;19.090;2023-04-25T09:52:44;8.50;;;4.50;;
71202;SDS011;58929;47.490;19.090;2023-04-25T09:55:21;10.07;;;4.28;;
71202;SDS011;58929;47.490;19.090;2023-04-25T09:57:49;6.95;;;4.10;;
71202;SDS011;58929;47.490;19.090;2023-04-25T10:00:20;6.97;;;3.25;;
71202;SDS011;58929;47.490;19.090;2023-04-25T10:02:48;5.90;;;4.20;;
71202;SDS011;58929;47.490;19.090;2023-04-25T10:05:38;4.20;;;2.17;;
71202;SDS011;58929;47.490;19.090;2023-04-25T10:08:07;5.70;;;2.60;;
71202;SDS011;58929;47.490;19.090;2023-04-25T10:10:36;2.70;;;2.05;;
71202;SDS011;58929;47.490;19.090;2023-04-25T10:13:05;8.80;;;2.30;;
71202;SDS011;58929;47.490;19.090;2023-04-25T10:15:34;4.05;;;1.77;;
71202;SDS011;58929;47.490;19.090;2023-04-25T10:18:05;2.08;;;1.80;;
71202;SDS011;58929;47.490;19.090;2023-04-25T10:20:34;5.55;;;3.33;;
71202;SDS011;58929;47.490;19.090;2023-04-25T10:23:03;5.07;;;2.63;;
71202;SDS011;58929;47.490;19.090;2023-04-25T10:25:33;1.17;;;1.05;;
71202;SDS011;58929;47.490;19.090;2023-04-25T10:28:04;1.38;;;1.20;;
71202;SDS011;58929;47.490;19.090;2023-04-25T10:30:32;3.38;;;1.20;;
71202;SDS011;58929;47.490;19.090;2023-04-25T10:33:00;1.92;;;1.27;;
71202;SDS011;58929;47.490;19.090;2023-04-25T10:35:29;1.55;;;1.40;;
71202;SDS011;58929;47.490;19.090;2023-04-25T10:38:02;4.68;;;1.20;;
71202;SDS011;58929;47.490;19.090;2023-04-25T10:40:31;2.95;;;1.00;;
71202;SDS011;58929;47.490;19.090;2023-04-25T10:45:52;2.80;;;1.58;;
71202;SDS011;58929;47.490;19.090;2023-04-25T10:48:26;7.43;;;3.58;;
71202;SDS011;58929;47.490;19.090;2023-04-25T10:51:06;5.15;;;3.08;;
71202;SDS011;58929;47.490;19.090;2023-04-25T10:53:35;10.80;;;3.08;;
71202;SDS011;58929;47.490;19.090;2023-04-25T10:56:09;3.13;;;2.10;;
71202;SDS011;58929;47.490;19.090;2023-04-25T10:58:42;3.95;;;2.40;;
71202;SDS011;58929;47.490;19.090;2023-04-25T11:01:13;4.88;;;1.63;;
71202;SDS011;58929;47.490;19.090;2023-04-25T11:03:42;4.78;;;2.10;;
71202;SDS011;58929;47.490;19.090;2023-04-25T11:06:15;2.38;;;1.00;;
71202;SDS011;58929;47.490;19.090;2023-04-25T11:08:47;2.50;;;1.27;;
71202;SDS011;58929;47.490;19.090;2023-04-25T11:11:16;1.50;;;0.98;;
71202;SDS011;58929;47.490;19.090;2023-04-25T11:13:44;1.42;;;1.20;;
71202;SDS011;58929;47.490;19.090;2023-04-25T11:16:16;3.20;;;0.90;;
71202;SDS011;58929;47.490;19.090;2023-04-25T11:18:56;1.33;;;0.90;;
71202;SDS011;58929;47.490;19.090;2023-04-25T11:21:24;2.00;;;0.82;;
71202;SDS011;58929;47.490;19.090;2023-04-25T11:23:54;1.13;;;1.02;;
71202;SDS011;58929;47.490;19.090;2023-04-25T11:26:24;3.25;;;1.40;;
71202;SDS011;58929;47.490;19.090;2023-04-25T11:28:55;3.78;;;0.80;;
71202;SDS011;58929;47.490;19.090;2023-04-25T11:31:26;0.73;;;0.52;;
71202;SDS011;58929;47.490;19.090;2023-04-25T11:33:54;1.00;;;0.70;;
71202;SDS011;58929;47.490;19.090;2023-04-25T11:36:22;3.30;;;0.98;;
71202;SDS011;58929;47.490;19.090;2023-04-25T11:38:50;3.50;;;0.70;;
71202;SDS011;58929;47.490;19.090;2023-04-25T11:41:18;1.10;;;0.80;;
71202;SDS011;58929;47.490;19.090;2023-04-25T11:43:46;1.70;;;0.50;;
71202;SDS011;58929;47.490;19.090;2023-04-25T11:46:16;0.85;;;0.70;;
71202;SDS011;58929;47.490;19.090;2023-04-25T11:48:49;1.02;;;0.77;;
71202;SDS011;58929;47.490;19.090;2023-04-25T11:51:19;6.20;;;1.08;;
71202;SDS011;58929;47.490;19.090;2023-04-25T11:53:47;3.15;;;0.90;;
71202;SDS011;58929;47.490;19.090;2023-04-25T11:56:15;3.65;;;0.80;;
71202;SDS011;58929;47.490;19.090;2023-04-25T11:58:59;2.60;;;1.10;;
71202;SDS011;58929;47.490;19.090;2023-04-25T12:01:28;3.28;;;0.68;;
71202;SDS011;58929;47.490;19.090;2023-04-25T12:04:11;1.50;;;1.20;;
71202;SDS011;58929;47.490;19.090;2023-04-25T12:06:40;1.33;;;0.80;;
71202;SDS011;58929;47.490;19.090;2023-04-25T12:09:09;2.17;;;1.48;;
71202;SDS011;58929;47.490;19.090;2023-04-25T12:11:41;1.10;;;0.88;;
71202;SDS011;58929;47.490;19.090;2023-04-25T12:14:11;3.92;;;1.63;;
71202;SDS011;58929;47.490;19.090;2023-04-25T12:16:42;2.35;;;1.63;;
71202;SDS011;58929;47.490;19.090;2023-04-25T12:19:14;2.65;;;1.73;;
71202;SDS011;58929;47.490;19.090;2023-04-25T12:21:42;4.90;;;1.60;;
71202;SDS011;58929;47.490;19.090;2023-04-25T12:24:24;3.92;;;1.83;;
71202;SDS011;58929;47.490;19.090;2023-04-25T12:26:58;6.55;;;1.60;;
71202;SDS011;58929;47.490;19.090;2023-04-25T12:29:28;1.65;;;1.40;;
71202;SDS011;58929;47.490;19.090;2023-04-25T12:32:07;2.55;;;1.45;;
71202;SDS011;58929;47.490;19.090;2023-04-25T12:34:37;1.60;;;1.10;;
71202;SDS011;58929;47.490;19.090;2023-04-25T12:37:05;2.63;;;1.10;;
71202;SDS011;58929;47.490;19.090;2023-04-25T12:39:33;2.22;;;1.00;;
71202;SDS011;58929;47.490;19.090;2023-04-25T12:42:01;2.45;;;1.55;;
71202;SDS011;58929;47.490;19.090;2023-04-25T12:44:33;2.15;;;1.00;;
71202;SDS011;58929;47.490;19.090;2023-04-25T12:47:01;1.63;;;0.80;;
71202;SDS011;58929;47.490;19.090;2023-04-25T12:49:30;2.03;;;1.13;;
71202;SDS011;58929;47.490;19.090;2023-04-25T12:51:59;3.90;;;0.90;;
71202;SDS011;58929;47.490;19.090;2023-04-25T12:54:27;0.88;;;0.82;;
71202;SDS011;58929;47.490;19.090;2023-04-25T12:56:55;2.45;;;1.02;;
71202;SDS011;58929;47.490;19.090;2023-04-25T12:59:23;2.35;;;1.30;;
71202;SDS011;58929;47.490;19.090;2023-04-25T13:01:51;2.92;;;0.95;;
71202;SDS011;58929;47.490;19.090;2023-04-25T13:04:20;2.53;;;1.00;;
71202;SDS011;58929;47.490;19.090;2023-04-25T13:06:48;1.95;;;1.40;;
71202;SDS011;58929;47.490;19.090;2023-04-25T13:09:18;1.20;;;0.98;;
71202;SDS011;58929;47.490;19.090;2023-04-25T13:11:47;2.20;;;1.20;;
71202;SDS011;58929;47.490;19.090;2023-04-25T13:14:15;1.65;;;1.20;;
71202;SDS011;58929;47.490;19.090;2023-04-25T13:16:43;1.45;;;0.90;;
71202;SDS011;58929;47.490;19.090;2023-04-25T13:19:12;3.03;;;0.95;;
71202;SDS011;58929;47.490;19.090;2023-04-25T13:21:43;3.05;;;1.52;;
71202;SDS011;58929;47.490;19.090;2023-04-25T13:24:11;1.92;;;1.10;;
71202;SDS011;58929;47.490;19.090;2023-04-25T13:26:40;1.65;;;1.23;;
71202;SDS011;58929;47.490;19.090;2023-04-25T13:29:08;1.80;;;1.35;;
71202;SDS011;58929;47.490;19.090;2023-04-25T13:31:36;7.97;;;1.42;;
71202;SDS011;58929;47.490;19.090;2023-04-25T13:34:04;1.10;;;0.98;;
71202;SDS011;58929;47.490;19.090;2023-04-25T13:36:32;1.52;;;0.90;;
71202;SDS011;58929;47.490;19.090;2023-04-25T13:39:00;5.55;;;1.30;;
71202;SDS011;58929;47.490;19.090;2023-04-25T13:41:28;2.08;;;1.00;;
71202;SDS011;58929;47.490;19.090;2023-04-25T13:43:58;5.47;;;1.00;;
71202;SDS011;58929;47.490;19.090;2023-04-25T13:46:27;6.88;;;0.80;;
71202;SDS011;58929;47.490;19.090;2023-04-25T13:49:12;1.85;;;1.10;;
71202;SDS011;58929;47.490;19.090;2023-04-25T13:51:40;1.88;;;1.15;;
71202;SDS011;58929;47.490;19.090;2023-04-25T13:54:09;2.17;;;1.00;;
71202;SDS011;58929;47.490;19.090;2023-04-25T13:56:37;2.50;;;1.40;;
71202;SDS011;58929;47.490;19.090;2023-04-25T13:59:06;0.80;;;0.80;;
71202;SDS011;58929;47.490;19.090;2023-04-25T14:01:34;1.10;;;1.00;;
71202;SDS011;58929;47.490;19.090;2023-04-25T14:04:03;1.05;;;0.57;;
71202;SDS011;58929;47.490;19.090;2023-04-25T14:06:31;1.92;;;1.00;;
71202;SDS011;58929;47.490;19.090;2023-04-25T14:08:59;4.55;;;1.20;;
71202;SDS011;58929;47.490;19.090;2023-04-25T14:11:28;1.10;;;0.80;;
71202;SDS011;58929;47.490;19.090;2023-04-25T14:13:56;2.20;;;1.17;;
71202;SDS011;58929;47.490;19.090;2023-04-25T14:16:25;1.00;;;0.82;;
71202;SDS011;58929;47.490;19.090;2023-04-25T14:18:53;4.15;;;1.05;;
71202;SDS011;58929;47.490;19.090;2023-04-25T14:21:21;2.38;;;1.05;;
71202;SDS011;58929;47.490;19.090;2023-04-25T14:23:50;1.15;;;1.05;;
71202;SDS011;58929;47.490;19.090;2023-04-25T14:26:19;2.63;;;1.48;;
71202;SDS011;58929;47.490;19.090;2023-04-25T14:28:47;4.57;;;1.00;;
71202;SDS011;58929;47.490;19.090;2023-04-25T14:31:15;2.35;;;0.85;;
71202;SDS011;58929;47.490;19.090;2023-04-25T14:33:45;1.05;;;0.90;;
71202;SDS011;58929;47.490;19.090;2023-04-25T14:36:13;1.70;;;0.88;;
71202;SDS011;58929;47.490;19.090;2023-04-25T14:38:41;5.88;;;1.50;;
71202;SDS011;58929;47.490;19.090;2023-04-25T14:41:09;1.80;;;0.90;;
71202;SDS011;58929;47.490;19.090;2023-04-25T14:43:37;2.35;;;1.20;;
71202;SDS011;58929;47.490;19.090;2023-04-25T14:46:06;1.90;;;1.20;;
71202;SDS011;58929;47.490;19.090;2023-04-25T14:48:34;1.73;;;1.30;;
71202;SDS011;58929;47.490;19.090;2023-04-25T14:51:05;3.75;;;1.05;;
71202;SDS011;58929;47.490;19.090;2023-04-25T14:53:33;3.28;;;1.83;;
71202;SDS011;58929;47.490;19.090;2023-04-25T14:56:03;2.80;;;1.17;;
71202;SDS011;58929;47.490;19.090;2023-04-25T14:58:31;1.75;;;1.00;;
71202;SDS011;58929;47.490;19.090;2023-04-25T15:00:59;1.65;;;1.10;;
71202;SDS011;58929;47.490;19.090;2023-04-25T15:03:27;1.30;;;1.20;;
71202;SDS011;58929;47.490;19.090;2023-04-25T15:05:56;1.10;;;1.00;;